METAR og TAF for ENBR

METAR og TAF for ENBR (Flesland). Data er hentet fra https://aviationweather.gov

Data at: 1455 UTC 18 Jun 2021

METAR for:ENBR (Bergen/Flesland Arpt, HO, NO)
Text:ENBR 181450Z 33010KT 300V360 9999 FEW027 14/07 Q1019 NOSIG RMK WIND 1200FT 32011KT
Temperature: 14.0°C ( 57°F)
Dewpoint: 7.0°C ( 45°F) [RH = 63%]
Pressure (altimeter):30.09 inches Hg (1019.0 mb)
Winds:from the NNW (330 degrees) at 12 MPH (10 knots; 5.1 m/s)
Visibility:6 or more sm (10+ km)
Ceiling:at least 12,000 feet AGL
Clouds: few clouds at 2700 feet AGL

TAF for:ENBR (Bergen/Flesland Arpt, HO, NO) issued at 1154 UTC 18 Jun 2021
Text:TAF ENBR 1812/1912 34012KT 9999 FEW020 SCT040
Forecast period:1200 UTC 18 June 2021 to 1200 UTC 19 June 2021
Forecast type:FROM: standard forecast or significant change
Winds:from the NNW (340 degrees) at 14 MPH (12 knots; 6.2 m/s)
Visibility:6 or more sm (10+ km)
Ceiling:at least 12,000 feet AGL
Clouds: few clouds at 2000 feet AGL, scattered clouds at 4000 feet AGL

Comments are closed.